createdAt,value
2022-11-08T00:02:16.744Z,12.48
2022-11-08T00:04:43.210Z,12.51
2022-11-08T00:07:30.135Z,12.52
2022-11-08T00:10:15.111Z,12.39
2022-11-08T00:12:59.748Z,12.42
2022-11-08T00:15:26.111Z,12.32
2022-11-08T00:17:52.669Z,12.44
2022-11-08T00:20:19.081Z,12.39
2022-11-08T00:22:45.434Z,12.41
2022-11-08T00:25:11.822Z,12.40
2022-11-08T00:27:38.198Z,12.38
2022-11-08T00:30:05.136Z,12.17
2022-11-08T00:32:31.503Z,12.27
2022-11-08T00:34:57.865Z,12.23
2022-11-08T00:37:24.284Z,12.12
2022-11-08T00:39:50.718Z,12.10
2022-11-08T00:42:17.087Z,12.16
2022-11-08T00:44:43.476Z,12.16
2022-11-08T00:47:10.067Z,12.09
2022-11-08T00:49:36.539Z,12.01
2022-11-08T00:52:03.071Z,11.99
2022-11-08T00:54:29.477Z,12.05
2022-11-08T00:56:55.856Z,12.00
2022-11-08T00:59:22.269Z,12.06
2022-11-08T01:01:48.753Z,12.09
2022-11-08T01:04:17.854Z,12.04
2022-11-08T01:06:44.741Z,11.97
2022-11-08T01:09:11.363Z,11.99
2022-11-08T01:11:38.847Z,12.07
2022-11-08T01:14:05.283Z,12.03
2022-11-08T01:16:32.917Z,12.10
2022-11-08T01:18:59.962Z,12.16
2022-11-08T01:21:26.735Z,12.15
2022-11-08T01:23:54.357Z,12.13
2022-11-08T01:26:23.792Z,12.32
2022-11-08T01:28:50.182Z,12.35
2022-11-08T01:31:21.986Z,12.40
2022-11-08T01:33:51.603Z,12.49
2022-11-08T01:36:20.981Z,12.41
2022-11-08T01:38:47.624Z,12.43
2022-11-08T01:41:15.593Z,12.46
2022-11-08T01:43:56.166Z,12.47
2022-11-08T01:46:30.893Z,12.39
2022-11-08T01:49:09.451Z,12.35
2022-11-08T01:51:44.963Z,12.36
2022-11-08T01:54:14.976Z,12.41
2022-11-08T01:56:42.051Z,12.33
2022-11-08T01:59:10.026Z,12.41
2022-11-08T02:01:36.849Z,12.38
2022-11-08T02:04:04.137Z,12.34
2022-11-08T02:06:31.616Z,12.31
2022-11-08T02:09:01.405Z,12.35
2022-11-08T02:11:28.421Z,12.45
2022-11-08T02:13:55.033Z,12.43
2022-11-08T02:16:21.402Z,12.50
2022-11-08T02:18:48.099Z,12.56
2022-11-08T02:21:24.747Z,12.63
2022-11-08T02:23:52.094Z,12.69
2022-11-08T02:26:22.245Z,12.77
2022-11-08T02:28:49.359Z,12.69
2022-11-08T02:31:17.879Z,12.80
2022-11-08T02:33:45.273Z,12.73
2022-11-08T02:36:17.797Z,12.77
2022-11-08T02:38:51.804Z,12.76
2022-11-08T02:41:18.412Z,12.78
2022-11-08T02:43:44.780Z,12.76
2022-11-08T02:46:11.182Z,12.85
2022-11-08T02:48:37.558Z,12.77
2022-11-08T02:51:03.940Z,12.88
2022-11-08T02:53:30.343Z,12.84
2022-11-08T02:55:56.724Z,12.90
2022-11-08T02:58:23.508Z,12.80
2022-11-08T03:00:49.866Z,12.74
2022-11-08T03:03:16.233Z,12.73
2022-11-08T03:05:43.295Z,12.80
2022-11-08T03:08:09.670Z,12.75
2022-11-08T03:10:36.076Z,12.85
2022-11-08T03:13:04.352Z,12.72
2022-11-08T03:15:31.205Z,12.71
2022-11-08T03:17:58.446Z,12.67
2022-11-08T03:20:29.613Z,12.72
2022-11-08T03:23:03.748Z,12.63
2022-11-08T03:25:30.370Z,12.56
2022-11-08T03:28:01.483Z,12.36
2022-11-08T03:30:27.882Z,12.27
2022-11-08T03:32:54.244Z,12.25
2022-11-08T03:35:20.620Z,12.30
2022-11-08T03:37:53.212Z,12.24
2022-11-08T03:40:20.039Z,12.22
2022-11-08T03:42:46.701Z,12.22
2022-11-08T03:45:13.520Z,12.28
2022-11-08T03:47:41.994Z,12.19
2022-11-08T03:50:09.060Z,12.09
2022-11-08T03:52:42.189Z,12.03
2022-11-08T03:55:10.407Z,12.01
2022-11-08T03:57:37.810Z,12.07
2022-11-08T04:00:05.600Z,12.11
2022-11-08T04:02:32.067Z,12.06
2022-11-08T04:04:58.562Z,12.00
2022-11-08T04:07:24.923Z,11.93
2022-11-08T04:09:51.271Z,11.76
2022-11-08T04:12:36.390Z,11.81
2022-11-08T04:15:18.777Z,11.88
2022-11-08T04:18:10.355Z,11.77
2022-11-08T04:20:59.847Z,11.82
2022-11-08T04:23:27.039Z,11.81
2022-11-08T04:26:01.210Z,11.89
2022-11-08T04:28:29.901Z,11.89
2022-11-08T04:30:57.850Z,11.84
2022-11-08T04:33:24.782Z,11.80
2022-11-08T04:35:51.574Z,11.83
2022-11-08T04:38:18.548Z,11.71
2022-11-08T04:40:45.620Z,11.75
2022-11-08T04:43:12.539Z,11.78
2022-11-08T04:45:39.446Z,11.84
2022-11-08T04:48:06.088Z,11.70
2022-11-08T04:50:32.448Z,11.76
2022-11-08T04:52:58.819Z,11.73
2022-11-08T04:55:25.206Z,11.69
2022-11-08T04:57:51.588Z,11.75
2022-11-08T05:00:18.206Z,11.73
2022-11-08T05:02:44.877Z,11.80
2022-11-08T05:05:11.349Z,11.68
2022-11-08T05:07:37.767Z,11.68
2022-11-08T05:10:04.689Z,11.71
2022-11-08T05:12:31.125Z,11.67
2022-11-08T05:14:57.513Z,11.62
2022-11-08T05:17:23.931Z,11.65
2022-11-08T05:20:08.955Z,11.50
2022-11-08T05:22:53.687Z,11.53
2022-11-08T05:25:20.130Z,11.55
2022-11-08T05:27:46.454Z,11.54
2022-11-08T05:30:12.848Z,11.49
2022-11-08T05:32:39.198Z,11.53
2022-11-08T05:35:06.089Z,11.48
2022-11-08T05:37:32.451Z,11.55
2022-11-08T05:39:58.817Z,11.51
2022-11-08T05:42:25.179Z,11.52
2022-11-08T05:44:51.573Z,11.60
2022-11-08T05:47:18.130Z,11.55
2022-11-08T05:49:44.526Z,11.56
2022-11-08T05:52:10.875Z,11.57
2022-11-08T05:54:37.210Z,11.60
2022-11-08T05:57:03.596Z,11.59
2022-11-08T05:59:29.932Z,11.65
2022-11-08T06:01:56.380Z,11.60
2022-11-08T06:04:22.806Z,11.55
2022-11-08T06:06:50.161Z,11.55
2022-11-08T06:09:16.509Z,11.71
2022-11-08T06:11:42.862Z,11.67
2022-11-08T06:14:09.206Z,11.60
2022-11-08T06:16:35.573Z,11.57
2022-11-08T06:19:01.927Z,11.63
2022-11-08T06:21:28.488Z,11.65
2022-11-08T06:23:55.015Z,11.72
2022-11-08T06:26:23.033Z,11.69
2022-11-08T06:28:49.618Z,11.70
2022-11-08T06:31:15.966Z,11.79
2022-11-08T06:33:42.573Z,11.76
2022-11-08T06:36:09.005Z,11.77
2022-11-08T06:38:35.375Z,11.68
2022-11-08T06:41:01.904Z,11.74
2022-11-08T06:43:28.560Z,11.71
2022-11-08T06:45:55.721Z,11.69
2022-11-08T06:48:22.088Z,11.60
2022-11-08T06:50:48.696Z,11.65
2022-11-08T06:53:15.399Z,11.68
2022-11-08T06:55:41.967Z,11.73
2022-11-08T06:58:08.406Z,11.74
2022-11-08T07:00:34.806Z,11.72
2022-11-08T07:03:03.441Z,11.78
2022-11-08T07:05:31.485Z,11.85
2022-11-08T07:07:58.557Z,11.86
2022-11-08T07:10:27.295Z,11.94
2022-11-08T07:13:04.560Z,11.99
2022-11-08T07:15:32.025Z,12.07
2022-11-08T07:18:07.374Z,12.15
2022-11-08T07:20:33.863Z,12.17
2022-11-08T07:23:00.249Z,12.27
2022-11-08T07:25:27.274Z,12.28
2022-11-08T07:27:58.294Z,12.42
2022-11-08T07:30:25.018Z,12.49
2022-11-08T07:32:51.494Z,12.50
2022-11-08T07:35:18.154Z,12.47
2022-11-08T07:37:44.951Z,12.67
2022-11-08T07:40:11.822Z,12.63
2022-11-08T07:43:05.148Z,12.66
2022-11-08T07:45:25.542Z,12.82
2022-11-08T07:48:09.505Z,12.88
2022-11-08T07:50:37.407Z,12.90
2022-11-08T07:53:03.830Z,13.02
2022-11-08T07:55:30.213Z,13.12
2022-11-08T07:58:03.066Z,13.21
2022-11-08T08:00:30.434Z,13.34
2022-11-08T08:02:58.362Z,13.40
2022-11-08T08:05:26.257Z,13.47
2022-11-08T08:07:52.663Z,13.42
2022-11-08T08:10:19.019Z,13.45
2022-11-08T08:12:46.183Z,13.58
2022-11-08T08:15:12.564Z,13.73
2022-11-08T08:17:38.984Z,13.78
2022-11-08T08:20:05.895Z,13.84
2022-11-08T08:22:32.383Z,13.94
2022-11-08T08:25:02.867Z,14.04
2022-11-08T08:27:29.910Z,14.14
2022-11-08T08:29:56.340Z,14.26
2022-11-08T08:32:22.695Z,14.36
2022-11-08T08:34:49.068Z,14.48
2022-11-08T08:37:16.801Z,14.55
2022-11-08T08:39:43.204Z,14.62
2022-11-08T08:42:09.610Z,14.64
2022-11-08T08:44:36.047Z,14.79
2022-11-08T08:47:02.400Z,15.00
2022-11-08T08:49:28.835Z,15.13
2022-11-08T08:51:55.228Z,15.21
2022-11-08T08:54:25.602Z,15.31
2022-11-08T08:56:54.701Z,15.40
2022-11-08T09:02:08.973Z,15.26
2022-11-08T09:04:35.914Z,15.21
2022-11-08T09:07:02.475Z,15.39
2022-11-08T09:09:28.896Z,15.40
2022-11-08T09:11:55.277Z,15.32
2022-11-08T09:14:21.658Z,15.42
2022-11-08T09:16:48.029Z,15.34
2022-11-08T09:19:14.395Z,15.31
2022-11-08T09:21:40.818Z,15.15
2022-11-08T09:24:07.403Z,15.16
2022-11-08T09:26:33.798Z,15.33
2022-11-08T09:29:00.623Z,15.55
2022-11-08T09:31:27.114Z,15.59
2022-11-08T09:33:53.609Z,15.55
2022-11-08T09:36:19.998Z,15.48
2022-11-08T09:38:46.384Z,15.49
2022-11-08T09:41:18.860Z,15.50
2022-11-08T09:43:57.216Z,15.62
2022-11-08T09:46:36.446Z,15.55
2022-11-08T09:49:03.480Z,15.59
2022-11-08T09:51:31.557Z,15.72
2022-11-08T09:53:59.008Z,15.62
2022-11-08T09:56:30.180Z,15.74
2022-11-08T09:59:05.743Z,15.68
2022-11-08T10:01:34.134Z,15.63
2022-11-08T10:04:07.328Z,15.76
2022-11-08T10:06:42.919Z,15.88
2022-11-08T10:10:07.961Z,15.98
2022-11-08T10:13:06.609Z,15.84
2022-11-08T10:15:51.096Z,15.92
2022-11-08T10:18:29.662Z,15.73
2022-11-08T10:21:15.725Z,15.72
2022-11-08T10:23:44.922Z,15.77
2022-11-08T10:26:13.308Z,15.79
2022-11-08T10:28:50.435Z,15.71
2022-11-08T10:31:19.058Z,15.71
2022-11-08T10:33:54.211Z,15.47
2022-11-08T10:36:29.096Z,15.50
2022-11-08T10:39:01.088Z,15.61
2022-11-08T10:41:53.631Z,15.63
2022-11-08T10:44:21.001Z,15.71
2022-11-08T10:46:53.706Z,15.80
2022-11-08T10:49:40.951Z,15.80
2022-11-08T10:52:34.728Z,15.90
2022-11-08T10:55:01.724Z,15.74
2022-11-08T10:57:27.959Z,15.86
2022-11-08T10:59:55.209Z,15.82
2022-11-08T11:02:23.154Z,15.70
2022-11-08T11:04:50.238Z,15.68
2022-11-08T11:07:31.102Z,15.80
2022-11-08T11:09:57.503Z,15.84
2022-11-08T11:12:23.901Z,15.54
2022-11-08T11:14:58.686Z,15.50
2022-11-08T11:17:32.854Z,15.48
2022-11-08T11:20:02.077Z,15.33
2022-11-08T11:22:32.453Z,15.32
2022-11-08T11:25:06.287Z,15.29
2022-11-08T11:27:36.407Z,15.29
2022-11-08T11:30:30.423Z,15.22
2022-11-08T11:33:06.790Z,15.13
2022-11-08T11:35:46.763Z,15.21
2022-11-08T11:38:54.048Z,15.36
2022-11-08T11:41:32.621Z,15.28
2022-11-08T11:44:13.900Z,15.30
2022-11-08T11:46:50.908Z,15.39
2022-11-08T11:49:20.764Z,15.42
2022-11-08T11:51:47.250Z,15.52
2022-11-08T11:54:15.441Z,15.62
2022-11-08T11:56:57.136Z,15.81
2022-11-08T11:59:32.472Z,15.83
2022-11-08T12:02:36.334Z,15.76
2022-11-08T12:05:29.866Z,15.68
2022-11-08T12:08:22.359Z,15.83
2022-11-08T12:10:51.605Z,16.07
2022-11-08T12:13:26.053Z,15.96
2022-11-08T12:16:14.896Z,16.20
2022-11-08T12:19:06.005Z,15.96
2022-11-08T12:21:48.469Z,16.10
2022-11-08T12:24:35.934Z,15.89
2022-11-08T12:27:20.897Z,16.06
2022-11-08T12:29:56.969Z,16.11
2022-11-08T12:32:49.488Z,16.03
2022-11-08T12:35:24.840Z,16.11
2022-11-08T12:38:09.966Z,16.31
2022-11-08T12:40:45.443Z,16.45
2022-11-08T12:43:30.738Z,16.39
2022-11-08T12:46:13.109Z,16.63
2022-11-08T12:48:58.276Z,16.52
2022-11-08T12:51:33.550Z,16.35
2022-11-08T12:54:22.982Z,16.23
2022-11-08T12:56:51.101Z,16.07
2022-11-08T12:59:54.364Z,16.09
2022-11-08T13:02:23.336Z,16.06
2022-11-08T13:05:10.469Z,16.16
2022-11-08T13:07:45.196Z,16.53
2022-11-08T13:10:30.362Z,16.57
2022-11-08T13:13:07.106Z,16.62
2022-11-08T13:15:33.676Z,16.53
2022-11-08T13:18:06.046Z,16.50
2022-11-08T13:20:45.936Z,16.49
2022-11-08T13:23:14.433Z,16.51
2022-11-08T13:25:42.799Z,16.55
2022-11-08T13:28:36.335Z,16.44
2022-11-08T13:31:12.688Z,16.36
2022-11-08T13:33:43.504Z,16.24
2022-11-08T13:36:34.517Z,16.13
2022-11-08T13:39:21.017Z,16.13
2022-11-08T13:42:24.904Z,16.10
2022-11-08T13:44:54.159Z,16.13
2022-11-08T13:47:32.803Z,16.19
2022-11-08T13:50:37.632Z,16.10
2022-11-08T13:53:11.035Z,16.00
2022-11-08T13:55:51.064Z,15.95
2022-11-08T13:58:32.670Z,16.02
2022-11-08T14:00:59.683Z,16.04
2022-11-08T14:03:32.292Z,15.95
2022-11-08T14:06:37.696Z,16.06
2022-11-08T14:09:35.337Z,16.00
2022-11-08T14:12:10.714Z,16.12
2022-11-08T14:14:56.378Z,16.00
2022-11-08T14:17:51.803Z,15.94
2022-11-08T14:20:32.167Z,15.89
2022-11-08T14:23:09.448Z,15.91
2022-11-08T14:25:36.342Z,15.82
2022-11-08T14:28:02.731Z,15.88
2022-11-08T14:30:29.215Z,15.80
2022-11-08T14:33:18.998Z,15.88
2022-11-08T14:36:15.654Z,15.92
2022-11-08T14:38:52.600Z,15.98
2022-11-08T14:41:24.875Z,15.98
2022-11-08T14:43:52.018Z,15.86
2022-11-08T14:46:30.652Z,15.79
2022-11-08T14:48:58.051Z,15.87
2022-11-08T14:51:25.748Z,15.78
2022-11-08T14:53:54.160Z,15.75
2022-11-08T14:56:28.919Z,15.68
2022-11-08T14:58:55.688Z,15.66
2022-11-08T15:01:26.677Z,15.73
2022-11-08T15:03:56.029Z,15.56
2022-11-08T15:06:30.681Z,15.51
2022-11-08T15:08:57.344Z,15.48
2022-11-08T15:11:28.497Z,15.57
2022-11-08T15:14:01.880Z,15.62
2022-11-08T15:16:46.534Z,15.56
2022-11-08T15:19:31.278Z,15.55
2022-11-08T15:22:00.057Z,15.56
2022-11-08T15:24:36.901Z,15.44
2022-11-08T15:27:12.512Z,15.45
2022-11-08T15:30:07.035Z,15.37
2022-11-08T15:32:35.734Z,15.35
2022-11-08T15:35:02.568Z,15.35
2022-11-08T15:37:35.048Z,15.29
2022-11-08T15:40:04.471Z,15.26
2022-11-08T15:42:32.422Z,15.28
2022-11-08T15:45:25.539Z,15.18
2022-11-08T15:47:53.184Z,15.21
2022-11-08T15:50:19.481Z,15.16
2022-11-08T15:52:48.576Z,15.18
2022-11-08T15:55:18.347Z,15.06
2022-11-08T15:57:46.567Z,15.12
2022-11-08T16:00:15.562Z,15.04
2022-11-08T16:02:42.230Z,15.13
2022-11-08T16:05:31.186Z,15.10
2022-11-08T16:07:58.227Z,15.05
2022-11-08T16:10:35.156Z,15.00
2022-11-08T16:13:02.939Z,15.10
2022-11-08T16:15:32.050Z,15.07
2022-11-08T16:17:59.263Z,15.02
2022-11-08T16:20:30.124Z,15.05
2022-11-08T16:22:58.029Z,15.04
2022-11-08T16:25:26.158Z,15.10
2022-11-08T16:27:57.668Z,15.16
2022-11-08T16:30:24.096Z,15.05
2022-11-08T16:32:50.705Z,15.11
2022-11-08T16:35:17.325Z,15.03
2022-11-08T16:37:44.741Z,14.99
2022-11-08T16:40:22.847Z,15.11
2022-11-08T16:42:51.615Z,15.11
2022-11-08T16:45:37.268Z,15.22
2022-11-08T16:48:07.512Z,15.25
2022-11-08T16:50:33.879Z,15.34
2022-11-08T16:53:00.254Z,15.41
2022-11-08T16:55:26.662Z,15.43
2022-11-08T16:57:53.040Z,15.41
2022-11-08T17:00:19.953Z,15.45
2022-11-08T17:02:53.103Z,15.40
2022-11-08T17:05:22.752Z,15.29
2022-11-08T17:07:53.199Z,15.33
2022-11-08T17:10:25.299Z,15.39
2022-11-08T17:12:51.976Z,15.28
2022-11-08T17:15:23.956Z,15.29
2022-11-08T17:17:51.328Z,15.29
2022-11-08T17:20:19.877Z,15.33
2022-11-08T17:22:46.879Z,15.35
2022-11-08T17:25:18.642Z,15.29
2022-11-08T17:27:45.406Z,15.28
2022-11-08T17:30:14.384Z,15.41
2022-11-08T17:32:41.301Z,15.48
2022-11-08T17:35:09.317Z,15.45
2022-11-08T17:37:35.710Z,15.44
2022-11-08T17:40:03.589Z,15.48
2022-11-08T17:42:34.268Z,15.48
2022-11-08T17:45:03.919Z,15.57
2022-11-08T17:47:30.293Z,15.53
2022-11-08T17:49:56.703Z,15.65
2022-11-08T17:52:23.533Z,15.57
2022-11-08T17:54:52.981Z,15.60
2022-11-08T17:57:19.634Z,15.53
2022-11-08T17:59:48.088Z,15.56
2022-11-08T18:02:15.106Z,15.49
2022-11-08T18:04:41.584Z,15.45
2022-11-08T18:07:08.242Z,15.46
2022-11-08T18:09:34.703Z,15.38
2022-11-08T18:12:01.075Z,15.20
2022-11-08T18:14:28.986Z,15.24
2022-11-08T18:16:55.935Z,15.27
2022-11-08T18:19:22.664Z,15.40
2022-11-08T18:21:49.047Z,15.47
2022-11-08T18:24:15.732Z,15.52
2022-11-08T18:26:42.129Z,15.45
2022-11-08T18:29:08.528Z,15.45
2022-11-08T18:31:34.939Z,15.60
2022-11-08T18:34:01.300Z,15.61
2022-11-08T18:36:29.747Z,15.71
2022-11-08T18:38:58.682Z,15.62
2022-11-08T18:41:27.985Z,15.63
2022-11-08T18:43:55.851Z,15.80
2022-11-08T18:46:23.753Z,15.77
2022-11-08T18:48:50.987Z,15.78
2022-11-08T18:51:19.239Z,15.71
2022-11-08T18:53:45.627Z,15.65
2022-11-08T18:56:12.689Z,15.60
2022-11-08T18:58:39.673Z,15.62
2022-11-08T19:01:06.397Z,15.62
2022-11-08T19:03:33.269Z,15.68
2022-11-08T19:05:59.644Z,15.66
2022-11-08T19:08:27.270Z,15.76
2022-11-08T19:10:56.061Z,15.81
2022-11-08T19:13:23.779Z,15.81
2022-11-08T19:16:00.864Z,15.77
2022-11-08T19:18:28.369Z,15.82
2022-11-08T19:21:08.288Z,15.79
2022-11-08T19:23:35.043Z,15.76
2022-11-08T19:26:03.793Z,15.76
2022-11-08T19:28:35.618Z,15.81
2022-11-08T19:31:02.166Z,15.78
2022-11-08T19:33:30.079Z,15.84
2022-11-08T19:36:01.088Z,15.86
2022-11-08T19:38:27.840Z,15.75
2022-11-08T19:40:54.198Z,15.71
2022-11-08T19:43:20.866Z,15.76
2022-11-08T19:45:52.509Z,15.86
2022-11-08T19:48:19.298Z,15.74
2022-11-08T19:50:46.102Z,15.77
2022-11-08T19:53:12.572Z,15.82
2022-11-08T19:55:38.938Z,15.71
2022-11-08T19:58:05.494Z,15.75
2022-11-08T20:00:33.068Z,15.80
2022-11-08T20:02:59.464Z,15.78
2022-11-08T20:05:26.690Z,15.77
2022-11-08T20:07:53.062Z,15.82
2022-11-08T20:10:19.470Z,15.76
2022-11-08T20:12:45.822Z,15.84
2022-11-08T20:15:12.192Z,15.72
2022-11-08T20:17:38.578Z,15.68
2022-11-08T20:20:05.610Z,15.69
2022-11-08T20:22:31.963Z,15.82
2022-11-08T20:24:58.321Z,15.78
2022-11-08T20:27:24.722Z,15.80
2022-11-08T20:29:52.402Z,15.80
2022-11-08T20:32:18.808Z,15.79
2022-11-08T20:34:46.080Z,15.77
2022-11-08T20:37:14.421Z,15.80
2022-11-08T20:39:41.085Z,15.71
2022-11-08T20:42:07.439Z,15.66
2022-11-08T20:44:33.810Z,15.66
2022-11-08T20:47:05.486Z,15.77
2022-11-08T20:49:32.853Z,15.62
2022-11-08T20:51:59.294Z,15.64
2022-11-08T20:54:25.690Z,15.54
2022-11-08T20:56:52.123Z,15.57
2022-11-08T20:59:18.663Z,15.48
2022-11-08T21:01:45.327Z,15.53
2022-11-08T21:04:12.135Z,15.53
2022-11-08T21:06:39.044Z,15.52
2022-11-08T21:11:53.016Z,15.65
2022-11-08T21:14:19.468Z,15.57
2022-11-08T21:17:14.615Z,15.49
2022-11-08T21:19:32.489Z,15.53
2022-11-08T21:22:14.920Z,15.56
2022-11-08T21:24:42.047Z,15.63
2022-11-08T21:27:08.628Z,15.56
2022-11-08T21:29:35.066Z,15.44
2022-11-08T21:32:01.537Z,15.53
2022-11-08T21:34:32.496Z,15.58
2022-11-08T21:36:59.688Z,15.62
2022-11-08T21:39:26.199Z,15.59
2022-11-08T21:41:52.627Z,15.64
2022-11-08T21:44:19.742Z,15.65
2022-11-08T21:46:46.223Z,15.62
2022-11-08T21:49:13.229Z,15.61
2022-11-08T21:51:39.660Z,15.62
2022-11-08T21:54:06.543Z,15.68
2022-11-08T21:56:34.580Z,15.65
2022-11-08T21:59:01.843Z,15.65
2022-11-08T22:01:30.526Z,15.63
2022-11-08T22:04:00.720Z,15.53
2022-11-08T22:06:28.171Z,15.58
2022-11-08T22:08:54.666Z,15.51
2022-11-08T22:11:21.078Z,15.46
2022-11-08T22:13:47.438Z,15.44
2022-11-08T22:16:13.888Z,15.38
2022-11-08T22:19:03.469Z,15.37
2022-11-08T22:21:38.863Z,15.49
2022-11-08T22:24:11.184Z,15.47
2022-11-08T22:26:37.877Z,15.35
2022-11-08T22:29:04.369Z,15.42
2022-11-08T22:31:30.994Z,15.34
2022-11-08T22:33:57.375Z,15.31
2022-11-08T22:36:23.840Z,15.40
2022-11-08T22:38:50.254Z,15.35
2022-11-08T22:41:18.599Z,15.32
2022-11-08T22:43:45.455Z,15.36
2022-11-08T22:46:12.355Z,15.40
2022-11-08T22:48:39.246Z,15.37
2022-11-08T22:51:05.753Z,15.33
2022-11-08T22:53:32.276Z,15.33
2022-11-08T22:56:00.769Z,15.27
2022-11-08T22:58:28.274Z,15.25
2022-11-08T23:00:54.775Z,15.30
2022-11-08T23:03:21.526Z,15.36
2022-11-08T23:05:51.854Z,15.42
2022-11-08T23:08:19.147Z,15.33
2022-11-08T23:11:05.164Z,15.33
2022-11-08T23:13:50.174Z,15.31
2022-11-08T23:16:31.830Z,15.38
2022-11-08T23:19:22.983Z,15.40
2022-11-08T23:22:08.059Z,15.40
2022-11-08T23:24:34.425Z,15.51
2022-11-08T23:27:20.544Z,15.51
2022-11-08T23:30:05.478Z,15.44
2022-11-08T23:32:32.498Z,15.40
2022-11-08T23:34:58.882Z,15.50
2022-11-08T23:37:25.940Z,15.46
2022-11-08T23:40:10.919Z,15.45
2022-11-08T23:42:55.959Z,15.52
2022-11-08T23:45:22.366Z,15.41
2022-11-08T23:47:48.817Z,15.34
2022-11-08T23:50:15.195Z,15.42
2022-11-08T23:52:41.568Z,15.41
2022-11-08T23:55:08.403Z,15.44
2022-11-08T23:57:34.761Z,15.48
